createdAt,value
2019-01-15T00:03:37.220Z,0.90
2019-01-15T00:07:44.003Z,1.10
2019-01-15T00:11:48.221Z,0.80
2019-01-15T00:15:52.599Z,0.60
2019-01-15T00:19:56.880Z,0.97
2019-01-15T00:24:01.235Z,0.70
2019-01-15T00:28:05.767Z,0.80
2019-01-15T00:32:09.967Z,0.77
2019-01-15T00:36:14.168Z,0.73
2019-01-15T00:40:18.873Z,0.77
2019-01-15T00:44:23.227Z,0.43
2019-01-15T00:48:27.540Z,0.97
2019-01-15T00:52:31.891Z,0.80
2019-01-15T00:56:36.153Z,0.77
2019-01-15T01:00:40.482Z,0.57
2019-01-15T01:04:44.759Z,0.60
2019-01-15T01:08:49.036Z,0.80
2019-01-15T01:12:53.301Z,0.70
2019-01-15T01:16:57.521Z,0.73
2019-01-15T01:21:01.658Z,0.70
2019-01-15T01:25:06.672Z,0.67
2019-01-15T01:29:10.842Z,0.70
2019-01-15T01:33:14.945Z,0.73
2019-01-15T01:37:19.149Z,0.70
2019-01-15T01:41:23.292Z,0.70
2019-01-15T01:45:27.738Z,0.70
2019-01-15T01:49:31.846Z,0.80
2019-01-15T01:53:35.999Z,0.50
2019-01-15T01:57:40.144Z,0.90
2019-01-15T02:01:44.318Z,0.90
2019-01-15T02:05:48.435Z,0.70
2019-01-15T02:09:52.623Z,0.57
2019-01-15T02:13:56.774Z,0.60
2019-01-15T02:18:08.079Z,0.50
2019-01-15T02:22:12.365Z,0.57
2019-01-15T02:26:16.966Z,0.80
2019-01-15T02:30:26.317Z,0.90
2019-01-15T02:34:30.471Z,1.00
2019-01-15T02:38:34.936Z,0.60
2019-01-15T02:42:46.440Z,0.60
2019-01-15T02:46:45.025Z,0.60
2019-01-15T02:50:49.171Z,0.70
2019-01-15T02:54:53.284Z,0.63
2019-01-15T02:58:57.710Z,0.70
2019-01-15T03:03:01.860Z,0.40
2019-01-15T03:07:05.978Z,0.50
2019-01-15T03:11:10.096Z,0.90
2019-01-15T03:15:14.276Z,0.70
2019-01-15T03:19:18.384Z,0.60
2019-01-15T03:23:22.549Z,0.80
2019-01-15T03:27:26.663Z,0.67
2019-01-15T03:31:30.849Z,0.70
2019-01-15T03:35:34.946Z,0.83
2019-01-15T03:39:39.266Z,0.60
2019-01-15T03:43:43.426Z,0.60
2019-01-15T03:47:47.580Z,0.70
2019-01-15T03:51:51.746Z,0.80
2019-01-15T03:55:56.000Z,0.70
2019-01-15T04:00:00.275Z,0.60
2019-01-15T04:04:04.696Z,0.60
2019-01-15T04:08:08.862Z,0.90
2019-01-15T04:12:13.008Z,0.70
2019-01-15T04:16:17.165Z,0.60
2019-01-15T04:20:21.326Z,0.73
2019-01-15T04:24:25.478Z,0.80
2019-01-15T04:28:29.698Z,0.90
2019-01-15T04:32:33.905Z,0.70
2019-01-15T04:36:38.335Z,0.80
2019-01-15T04:40:42.499Z,0.70
2019-01-15T04:44:46.628Z,0.83
2019-01-15T04:48:50.888Z,0.90
2019-01-15T04:53:00.044Z,0.50
2019-01-15T04:57:04.991Z,0.90
2019-01-15T05:01:09.479Z,0.70
2019-01-15T05:05:15.464Z,0.63
2019-01-15T05:09:19.613Z,0.47
2019-01-15T05:13:27.577Z,0.90
2019-01-15T05:17:30.514Z,0.70
2019-01-15T05:21:34.959Z,0.60
2019-01-15T05:25:39.092Z,0.70
2019-01-15T05:29:43.203Z,0.80
2019-01-15T05:33:47.400Z,0.80
2019-01-15T05:37:51.553Z,0.90
2019-01-15T05:41:55.693Z,0.43
2019-01-15T05:45:59.828Z,0.67
2019-01-15T05:50:04.570Z,0.60
2019-01-15T05:54:08.718Z,0.80
2019-01-15T05:58:19.004Z,0.80
2019-01-15T06:02:23.157Z,1.00
2019-01-15T06:06:27.312Z,0.80
2019-01-15T06:10:31.459Z,0.60
2019-01-15T06:14:35.634Z,0.80
2019-01-15T06:18:39.763Z,0.50
2019-01-15T06:22:43.923Z,0.90
2019-01-15T06:26:48.079Z,0.80
2019-01-15T06:30:52.237Z,0.70
2019-01-15T06:34:56.432Z,0.60
2019-01-15T06:39:00.548Z,0.77
2019-01-15T06:43:04.709Z,0.80
2019-01-15T06:47:09.058Z,0.93
2019-01-15T06:51:13.204Z,1.10
2019-01-15T06:55:18.473Z,1.03
2019-01-15T07:03:37.266Z,0.90
2019-01-15T07:07:41.565Z,0.80
2019-01-15T07:11:45.885Z,1.00
2019-01-15T07:15:52.352Z,0.80
2019-01-15T07:19:56.777Z,1.20
2019-01-15T07:24:01.238Z,0.87
2019-01-15T07:28:05.985Z,0.90
2019-01-15T07:32:10.272Z,0.80
2019-01-15T07:36:14.633Z,1.03
2019-01-15T07:40:18.928Z,1.13
2019-01-15T07:44:23.447Z,1.20
2019-01-15T07:48:27.640Z,0.97
2019-01-15T07:52:31.992Z,1.00
2019-01-15T07:56:36.156Z,0.90
2019-01-15T08:00:40.569Z,1.13
2019-01-15T08:04:44.873Z,1.30
2019-01-15T08:08:49.256Z,1.10
2019-01-15T08:12:54.027Z,1.10
2019-01-15T08:16:58.433Z,0.77
2019-01-15T08:21:02.820Z,0.90
2019-01-15T08:25:26.167Z,1.10
2019-01-15T08:29:30.855Z,0.70
2019-01-15T08:33:35.202Z,0.80
2019-01-15T08:37:39.581Z,1.20
2019-01-15T08:41:43.915Z,0.97
2019-01-15T08:45:48.219Z,1.47
2019-01-15T08:49:52.497Z,0.93
2019-01-15T08:53:57.258Z,0.80
2019-01-15T08:58:01.491Z,1.23
2019-01-15T09:02:05.778Z,1.20
2019-01-15T09:06:10.043Z,1.00
2019-01-15T09:10:15.187Z,1.10
2019-01-15T09:24:07.288Z,1.00
2019-01-15T09:28:30.674Z,1.13
2019-01-15T09:32:34.945Z,1.30
2019-01-15T09:36:39.304Z,1.03
2019-01-15T09:41:02.664Z,1.00
2019-01-15T09:45:26.043Z,1.00
2019-01-15T09:49:30.389Z,1.10
2019-01-15T09:53:34.715Z,1.10
2019-01-15T09:57:39.024Z,1.10
2019-01-15T10:02:02.394Z,1.20
2019-01-15T10:06:06.987Z,1.20
2019-01-15T10:10:11.572Z,1.37
2019-01-15T10:14:41.226Z,1.27
2019-01-15T10:18:42.775Z,1.40
2019-01-15T10:22:47.454Z,1.27
2019-01-15T10:27:11.128Z,1.53
2019-01-15T10:31:59.710Z,1.20
2019-01-15T10:36:05.325Z,1.40
2019-01-15T10:40:09.750Z,1.50
2019-01-15T10:44:14.058Z,1.67
2019-01-15T10:48:18.386Z,1.43
2019-01-15T10:52:22.670Z,1.40
2019-01-15T10:56:27.040Z,1.20
2019-01-15T11:00:50.380Z,1.27
2019-01-15T11:04:54.698Z,1.30
2019-01-15T11:09:18.095Z,1.33
2019-01-15T11:13:23.973Z,1.47
2019-01-15T11:17:47.365Z,1.10
2019-01-15T11:21:51.604Z,1.50
2019-01-15T11:26:15.017Z,1.40
2019-01-15T11:30:19.384Z,1.60
2019-01-15T11:34:42.747Z,1.73
2019-01-15T11:38:47.187Z,1.50
2019-01-15T11:42:51.857Z,1.70
2019-01-15T11:46:56.477Z,1.43
2019-01-15T11:51:01.587Z,1.70
2019-01-15T11:55:25.636Z,1.60
2019-01-15T11:59:30.921Z,1.63
2019-01-15T12:04:03.151Z,1.30
2019-01-15T12:08:26.381Z,1.70
2019-01-15T12:17:32.119Z,1.87
2019-01-15T12:21:55.571Z,1.47
2019-01-15T12:26:31.055Z,1.50
2019-01-15T12:31:06.397Z,1.60
2019-01-15T12:35:35.950Z,1.57
2019-01-15T12:40:11.224Z,1.40
2019-01-15T12:44:41.502Z,1.30
2019-01-15T12:49:08.190Z,1.10
2019-01-15T12:57:38.723Z,1.40
2019-01-15T13:02:14.305Z,1.33
2019-01-15T13:06:49.651Z,1.13
2019-01-15T13:16:06.510Z,1.23
2019-01-15T13:20:43.316Z,1.40
2019-01-15T13:25:40.886Z,1.30
2019-01-15T13:30:00.741Z,1.50
2019-01-15T13:34:50.710Z,1.43
2019-01-15T13:39:26.073Z,1.30
2019-01-15T13:43:48.094Z,1.37
2019-01-15T13:48:11.104Z,1.30
2019-01-15T13:52:33.083Z,1.33
2019-01-15T13:57:04.164Z,1.30
2019-01-15T14:01:31.871Z,1.20
2019-01-15T14:05:53.844Z,1.23
2019-01-15T14:10:51.170Z,1.20
2019-01-15T14:15:17.472Z,1.40
2019-01-15T14:19:58.895Z,1.53
2019-01-15T14:24:32.075Z,1.30
2019-01-15T14:28:45.124Z,2.07
2019-01-15T14:33:33.307Z,1.40
2019-01-15T14:37:55.591Z,1.50
2019-01-15T14:42:23.563Z,1.37
2019-01-15T14:46:47.260Z,1.20
2019-01-15T14:51:14.147Z,1.40
2019-01-15T14:55:46.036Z,1.10
2019-01-15T15:00:18.121Z,1.47
2019-01-15T15:05:09.598Z,1.60
2019-01-15T15:09:34.730Z,1.50
2019-01-15T15:14:11.197Z,1.30
2019-01-15T15:18:34.789Z,1.53
2019-01-15T15:22:59.731Z,1.30
2019-01-15T15:27:42.147Z,1.40
2019-01-15T15:32:17.854Z,1.20
2019-01-15T15:36:43.447Z,1.50
2019-01-15T15:45:44.246Z,1.33
2019-01-15T15:54:37.683Z,1.30
2019-01-15T15:58:51.685Z,1.50
2019-01-15T16:03:13.300Z,1.50
2019-01-15T16:07:39.521Z,1.40
2019-01-15T16:11:54.952Z,1.23
2019-01-15T16:16:19.023Z,0.90
2019-01-15T16:20:47.945Z,1.17
2019-01-15T16:25:06.566Z,1.10
2019-01-15T16:29:29.814Z,1.40
2019-01-15T16:34:24.461Z,1.00
2019-01-15T16:38:48.680Z,1.40
2019-01-15T16:43:29.057Z,1.30
2019-01-15T16:47:39.475Z,1.30
2019-01-15T16:52:07.409Z,1.20
2019-01-15T16:56:37.922Z,1.30
2019-01-15T17:01:00.182Z,1.30
2019-01-15T17:05:32.348Z,1.17
2019-01-15T17:10:20.388Z,1.23
2019-01-15T17:14:44.661Z,1.70
2019-01-15T17:19:06.471Z,1.20
2019-01-15T17:23:28.234Z,1.17
2019-01-15T17:28:10.592Z,1.17
2019-01-15T17:32:32.441Z,1.20
2019-01-15T17:36:54.451Z,1.40
2019-01-15T17:41:16.516Z,1.30
2019-01-15T17:45:32.075Z,1.27
2019-01-15T17:49:55.551Z,1.30
2019-01-15T17:54:18.753Z,1.67
2019-01-15T17:58:41.948Z,1.40
2019-01-15T18:03:11.687Z,1.40
2019-01-15T18:07:33.720Z,1.53
2019-01-15T18:12:02.680Z,1.70
2019-01-15T18:16:26.319Z,1.53
2019-01-15T18:20:48.694Z,1.70
2019-01-15T18:25:26.150Z,1.43
2019-01-15T18:29:52.209Z,1.53
2019-01-15T18:34:15.521Z,1.50
2019-01-15T18:38:50.891Z,1.67
2019-01-15T18:43:24.427Z,1.50
2019-01-15T18:47:51.624Z,1.60
2019-01-15T18:52:27.791Z,1.50
2019-01-15T18:57:09.655Z,1.30
2019-01-15T19:01:24.183Z,1.63
2019-01-15T19:06:02.391Z,1.60
2019-01-15T19:10:24.690Z,1.77
2019-01-15T19:14:49.000Z,1.70
2019-01-15T19:19:11.860Z,1.87
2019-01-15T19:23:41.069Z,1.60
2019-01-15T19:28:03.127Z,1.80
2019-01-15T19:32:36.697Z,1.77
2019-01-15T19:37:03.299Z,1.87
2019-01-15T19:41:17.191Z,2.30
2019-01-15T19:45:52.816Z,2.17
2019-01-15T19:50:15.947Z,1.90
2019-01-15T19:54:57.343Z,2.17
2019-01-15T19:59:29.478Z,2.27
2019-01-15T20:03:46.300Z,2.00
2019-01-15T20:08:09.596Z,2.00
2019-01-15T20:12:31.424Z,2.20
2019-01-15T20:16:55.128Z,2.27
2019-01-15T20:21:28.896Z,2.47
2019-01-15T20:26:01.253Z,1.97
2019-01-15T20:30:30.038Z,2.00
2019-01-15T20:34:53.299Z,2.60
2019-01-15T20:39:25.828Z,2.60
2019-01-15T20:44:20.246Z,2.20
2019-01-15T20:48:49.262Z,2.47
2019-01-15T20:53:05.259Z,2.80
2019-01-15T20:57:32.344Z,2.20
2019-01-15T21:01:54.284Z,2.30
2019-01-15T21:06:29.405Z,2.83
2019-01-15T21:10:56.168Z,2.30
2019-01-15T21:15:37.223Z,2.60
2019-01-15T21:20:03.334Z,2.13
2019-01-15T21:24:47.567Z,2.30
2019-01-15T21:29:37.764Z,2.13
2019-01-15T21:34:15.321Z,2.63
2019-01-15T21:43:28.313Z,2.50
2019-01-15T21:47:53.044Z,2.27
2019-01-15T21:52:30.003Z,2.20
2019-01-15T21:57:00.447Z,2.57
2019-01-15T22:01:41.498Z,2.30
2019-01-15T22:06:16.848Z,2.50
2019-01-15T22:10:57.632Z,2.23
2019-01-15T22:15:31.899Z,2.60
2019-01-15T22:25:00.423Z,2.70
2019-01-15T22:29:27.663Z,2.53
2019-01-15T22:34:00.105Z,2.70
2019-01-15T22:38:23.662Z,2.07
2019-01-15T22:43:22.740Z,2.63
2019-01-15T22:48:01.023Z,2.27
2019-01-15T22:52:38.874Z,2.30
2019-01-15T22:57:06.506Z,2.67
2019-01-15T23:06:54.531Z,2.03
2019-01-15T23:11:28.117Z,2.40
2019-01-15T23:15:47.051Z,2.77
2019-01-15T23:20:12.187Z,2.00
2019-01-15T23:24:48.299Z,2.40
2019-01-15T23:34:28.009Z,2.23
2019-01-15T23:38:54.292Z,2.53
2019-01-15T23:43:16.293Z,2.50
2019-01-15T23:47:38.281Z,2.50
2019-01-15T23:52:19.280Z,2.13
2019-01-15T23:56:45.427Z,2.47
